sensor_id;sensor_type;location;lat;lon;timestamp;pressure;altitude;pressure_sealevel;temperature;humidity
55347;BME280;41218;55.700;38.270;2023-02-03T00:03:52;99186.78;;;-0.85;70.66
55347;BME280;41218;55.700;38.270;2023-02-03T00:08:54;99196.34;;;-0.87;70.70
55347;BME280;41218;55.700;38.270;2023-02-03T00:13:57;99198.72;;;-0.86;70.84
55347;BME280;41218;55.700;38.270;2023-02-03T00:18:58;99199.06;;;-0.87;70.54
55347;BME280;41218;55.700;38.270;2023-02-03T00:23:58;99178.13;;;-0.87;70.90
55347;BME280;41218;55.700;38.270;2023-02-03T00:28:59;99177.66;;;-0.89;71.00
55347;BME280;41218;55.700;38.270;2023-02-03T00:34:00;99183.44;;;-0.82;70.93
55347;BME280;41218;55.700;38.270;2023-02-03T00:39:00;99175.63;;;-0.83;70.78
55347;BME280;41218;55.700;38.270;2023-02-03T00:44:01;99181.03;;;-0.83;70.80
55347;BME280;41218;55.700;38.270;2023-02-03T00:49:02;99177.84;;;-0.85;70.70
55347;BME280;41218;55.700;38.270;2023-02-03T00:54:03;99182.63;;;-0.82;70.87
55347;BME280;41218;55.700;38.270;2023-02-03T00:59:03;99179.44;;;-0.84;70.62
55347;BME280;41218;55.700;38.270;2023-02-03T01:04:04;99175.72;;;-0.88;70.59
55347;BME280;41218;55.700;38.270;2023-02-03T01:09:05;99164.19;;;-0.94;71.33
55347;BME280;41218;55.700;38.270;2023-02-03T01:14:05;99172.91;;;-0.83;71.01
55347;BME280;41218;55.700;38.270;2023-02-03T01:19:06;99176.91;;;-0.81;70.88
55347;BME280;41218;55.700;38.270;2023-02-03T01:24:07;99173.41;;;-0.81;70.75
55347;BME280;41218;55.700;38.270;2023-02-03T01:29:09;99163.44;;;-0.86;70.92
55347;BME280;41218;55.700;38.270;2023-02-03T01:34:13;99165.38;;;-0.86;71.10
55347;BME280;41218;55.700;38.270;2023-02-03T01:39:15;99157.66;;;-0.93;71.33
55347;BME280;41218;55.700;38.270;2023-02-03T01:49:35;99163.16;;;-0.84;71.03
55347;BME280;41218;55.700;38.270;2023-02-03T01:54:41;99162.34;;;-0.85;71.40
55347;BME280;41218;55.700;38.270;2023-02-03T01:59:43;99136.25;;;-0.94;71.04
55347;BME280;41218;55.700;38.270;2023-02-03T02:04:56;99156.63;;;-0.83;71.64
55347;BME280;41218;55.700;38.270;2023-02-03T02:09:59;99159.00;;;-0.82;71.35
55347;BME280;41218;55.700;38.270;2023-02-03T02:15:01;99123.63;;;-0.99;71.19
55347;BME280;41218;55.700;38.270;2023-02-03T02:41:34;99141.44;;;-0.84;71.45
55347;BME280;41218;55.700;38.270;2023-02-03T02:47:19;99128.19;;;-0.86;71.94
55347;BME280;41218;55.700;38.270;2023-02-03T02:52:21;99136.00;;;-0.84;71.76
55347;BME280;41218;55.700;38.270;2023-02-03T02:57:25;99133.59;;;-0.86;71.88
55347;BME280;41218;55.700;38.270;2023-02-03T03:02:34;99123.69;;;-0.90;71.72
55347;BME280;41218;55.700;38.270;2023-02-03T03:07:43;99135.53;;;-0.86;71.86
55347;BME280;41218;55.700;38.270;2023-02-03T03:12:48;99112.94;;;-0.95;71.69
55347;BME280;41218;55.700;38.270;2023-02-03T03:18:07;99137.78;;;-0.79;71.89
55347;BME280;41218;55.700;38.270;2023-02-03T03:23:18;99132.38;;;-0.79;71.73
55347;BME280;41218;55.700;38.270;2023-02-03T03:28:24;99137.50;;;-0.78;71.35
55347;BME280;41218;55.700;38.270;2023-02-03T03:33:27;99130.59;;;-0.84;71.98
55347;BME280;41218;55.700;38.270;2023-02-03T03:43:40;99121.75;;;-0.90;71.76
55347;BME280;41218;55.700;38.270;2023-02-03T03:48:58;99134.59;;;-0.82;72.17
55347;BME280;41218;55.700;38.270;2023-02-03T03:54:06;99131.88;;;-0.82;72.00
55347;BME280;41218;55.700;38.270;2023-02-03T03:59:09;99126.59;;;-0.87;72.09
55347;BME280;41218;55.700;38.270;2023-02-03T04:04:13;99134.47;;;-0.76;72.10
55347;BME280;41218;55.700;38.270;2023-02-03T04:09:15;99133.97;;;-0.78;72.32
55347;BME280;41218;55.700;38.270;2023-02-03T04:14:16;99141.00;;;-0.77;72.24
55347;BME280;41218;55.700;38.270;2023-02-03T04:19:17;99146.31;;;-0.72;72.25
55347;BME280;41218;55.700;38.270;2023-02-03T04:24:17;99153.81;;;-0.69;71.83
55347;BME280;41218;55.700;38.270;2023-02-03T04:29:18;99148.41;;;-0.69;72.21
55347;BME280;41218;55.700;38.270;2023-02-03T04:34:18;99154.94;;;-0.70;72.36
55347;BME280;41218;55.700;38.270;2023-02-03T04:39:19;99150.31;;;-0.70;72.40
55347;BME280;41218;55.700;38.270;2023-02-03T04:44:19;99136.22;;;-0.81;72.33
55347;BME280;41218;55.700;38.270;2023-02-03T04:49:20;99140.69;;;-0.76;72.06
55347;BME280;41218;55.700;38.270;2023-02-03T04:54:20;99147.31;;;-0.68;72.34
55347;BME280;41218;55.700;38.270;2023-02-03T04:59:21;99148.88;;;-0.67;72.32
55347;BME280;41218;55.700;38.270;2023-02-03T05:04:21;99142.81;;;-0.73;72.43
55347;BME280;41218;55.700;38.270;2023-02-03T05:09:23;99140.59;;;-0.71;72.65
55347;BME280;41218;55.700;38.270;2023-02-03T05:14:24;99151.94;;;-0.69;72.60
55347;BME280;41218;55.700;38.270;2023-02-03T05:19:24;99150.81;;;-0.68;72.64
55347;BME280;41218;55.700;38.270;2023-02-03T05:24:25;99156.72;;;-0.66;72.54
55347;BME280;41218;55.700;38.270;2023-02-03T05:29:25;99154.00;;;-0.66;72.41
55347;BME280;41218;55.700;38.270;2023-02-03T05:34:26;99141.69;;;-0.72;72.82
55347;BME280;41218;55.700;38.270;2023-02-03T05:39:26;99156.63;;;-0.61;72.42
55347;BME280;41218;55.700;38.270;2023-02-03T05:44:27;99149.56;;;-0.62;72.36
55347;BME280;41218;55.700;38.270;2023-02-03T05:49:28;99148.13;;;-0.59;72.56
55347;BME280;41218;55.700;38.270;2023-02-03T05:54:28;99162.53;;;-0.58;72.64
55347;BME280;41218;55.700;38.270;2023-02-03T05:59:29;99161.41;;;-0.57;72.79
55347;BME280;41218;55.700;38.270;2023-02-03T06:04:29;99167.81;;;-0.53;72.65
55347;BME280;41218;55.700;38.270;2023-02-03T06:09:30;99151.03;;;-0.55;72.72
55347;BME280;41218;55.700;38.270;2023-02-03T06:14:30;99160.97;;;-0.51;72.99
55347;BME280;41218;55.700;38.270;2023-02-03T06:19:31;99167.22;;;-0.50;72.75
55347;BME280;41218;55.700;38.270;2023-02-03T06:24:31;99170.09;;;-0.47;72.70
55347;BME280;41218;55.700;38.270;2023-02-03T06:29:32;99164.50;;;-0.50;73.00
55347;BME280;41218;55.700;38.270;2023-02-03T06:34:32;99160.22;;;-0.43;72.87
55347;BME280;41218;55.700;38.270;2023-02-03T06:39:33;99141.94;;;-0.51;72.90
55347;BME280;41218;55.700;38.270;2023-02-03T06:44:33;99162.81;;;-0.37;72.94
55347;BME280;41218;55.700;38.270;2023-02-03T06:49:34;99145.34;;;-0.45;72.79
55347;BME280;41218;55.700;38.270;2023-02-03T06:54:34;99161.06;;;-0.33;73.13
55347;BME280;41218;55.700;38.270;2023-02-03T06:59:35;99154.84;;;-0.34;73.19
55347;BME280;41218;55.700;38.270;2023-02-03T07:04:35;99164.16;;;-0.26;72.79
55347;BME280;41218;55.700;38.270;2023-02-03T07:09:38;99157.78;;;-0.22;73.23
55347;BME280;41218;55.700;38.270;2023-02-03T07:14:39;99148.66;;;-0.26;73.21
55347;BME280;41218;55.700;38.270;2023-02-03T07:19:40;99160.34;;;-0.16;72.95
55347;BME280;41218;55.700;38.270;2023-02-03T07:24:40;99163.22;;;-0.13;73.25
55347;BME280;41218;55.700;38.270;2023-02-03T07:29:41;99163.09;;;-0.08;73.02
55347;BME280;41218;55.700;38.270;2023-02-03T07:34:41;99156.84;;;-0.08;73.06
55347;BME280;41218;55.700;38.270;2023-02-03T07:39:42;99159.44;;;-0.03;73.06
55347;BME280;41218;55.700;38.270;2023-02-03T07:44:42;99162.66;;;-0.01;73.37
55347;BME280;41218;55.700;38.270;2023-02-03T07:49:43;99151.47;;;0.01;73.47
55347;BME280;41218;55.700;38.270;2023-02-03T07:54:43;99150.53;;;0.05;73.27
55347;BME280;41218;55.700;38.270;2023-02-03T07:59:44;99143.53;;;0.13;73.37
55347;BME280;41218;55.700;38.270;2023-02-03T08:04:44;99161.94;;;0.25;73.51
55347;BME280;41218;55.700;38.270;2023-02-03T08:09:45;99151.09;;;0.33;73.62
55347;BME280;41218;55.700;38.270;2023-02-03T08:14:45;99158.78;;;0.40;72.96
55347;BME280;41218;55.700;38.270;2023-02-03T08:19:46;99158.47;;;0.42;73.22
55347;BME280;41218;55.700;38.270;2023-02-03T08:24:47;99148.56;;;0.46;73.20
55347;BME280;41218;55.700;38.270;2023-02-03T08:29:48;99146.63;;;0.46;73.25
55347;BME280;41218;55.700;38.270;2023-02-03T08:34:49;99150.47;;;0.54;73.28
55347;BME280;41218;55.700;38.270;2023-02-03T08:39:50;99146.97;;;0.62;73.14
55347;BME280;41218;55.700;38.270;2023-02-03T08:44:50;99143.63;;;0.65;73.35
55347;BME280;41218;55.700;38.270;2023-02-03T08:49:51;99128.09;;;0.66;73.08
55347;BME280;41218;55.700;38.270;2023-02-03T08:54:52;99127.47;;;0.77;73.03
55347;BME280;41218;55.700;38.270;2023-02-03T08:59:52;99136.91;;;0.89;72.74
55347;BME280;41218;55.700;38.270;2023-02-03T09:04:53;99137.56;;;0.86;72.86
55347;BME280;41218;55.700;38.270;2023-02-03T09:09:54;99134.34;;;0.92;72.72
55347;BME280;41218;55.700;38.270;2023-02-03T09:14:54;99145.06;;;0.89;72.46
55347;BME280;41218;55.700;38.270;2023-02-03T09:19:55;99135.00;;;0.80;72.78
55347;BME280;41218;55.700;38.270;2023-02-03T09:24:55;99144.59;;;0.87;72.86
55347;BME280;41218;55.700;38.270;2023-02-03T09:29:56;99141.69;;;0.83;72.71
55347;BME280;41218;55.700;38.270;2023-02-03T09:34:57;99146.38;;;0.91;72.96
55347;BME280;41218;55.700;38.270;2023-02-03T09:39:58;99138.34;;;0.86;72.86
55347;BME280;41218;55.700;38.270;2023-02-03T09:45:23;99140.75;;;0.88;73.21
55347;BME280;41218;55.700;38.270;2023-02-03T09:50:27;99136.28;;;0.92;73.10
55347;BME280;41218;55.700;38.270;2023-02-03T09:55:47;99136.94;;;0.97;73.50
55347;BME280;41218;55.700;38.270;2023-02-03T10:00:53;99130.03;;;1.00;73.32
55347;BME280;41218;55.700;38.270;2023-02-03T10:21:56;99128.88;;;1.36;73.05
55347;BME280;41218;55.700;38.270;2023-02-03T10:26:57;99137.00;;;1.45;73.17
55347;BME280;41218;55.700;38.270;2023-02-03T10:31:58;99130.31;;;1.42;73.01
55347;BME280;41218;55.700;38.270;2023-02-03T10:42:10;99123.41;;;1.45;73.04
55347;BME280;41218;55.700;38.270;2023-02-03T10:52:33;99122.91;;;1.43;73.07
55347;BME280;41218;55.700;38.270;2023-02-03T10:57:35;99119.06;;;1.44;73.14
55347;BME280;41218;55.700;38.270;2023-02-03T11:02:38;99111.53;;;1.49;73.03
55347;BME280;41218;55.700;38.270;2023-02-03T11:07:39;99101.72;;;1.57;73.20
55347;BME280;41218;55.700;38.270;2023-02-03T11:12:39;99109.88;;;1.66;73.03
55347;BME280;41218;55.700;38.270;2023-02-03T11:17:42;99095.44;;;1.65;73.26
55347;BME280;41218;55.700;38.270;2023-02-03T11:22:44;99101.06;;;1.69;72.98
55347;BME280;41218;55.700;38.270;2023-02-03T11:27:45;99110.03;;;1.69;72.96
55347;BME280;41218;55.700;38.270;2023-02-03T11:32:47;99096.41;;;1.69;73.05
55347;BME280;41218;55.700;38.270;2023-02-03T11:38:27;99088.22;;;1.69;73.26
55347;BME280;41218;55.700;38.270;2023-02-03T11:43:28;99109.34;;;1.81;72.66
55347;BME280;41218;55.700;38.270;2023-02-03T11:48:35;99103.88;;;1.81;73.04
55347;BME280;41218;55.700;38.270;2023-02-03T11:54:11;99080.84;;;1.70;73.04
55347;BME280;41218;55.700;38.270;2023-02-03T11:59:35;99075.88;;;1.72;73.27
55347;BME280;41218;55.700;38.270;2023-02-03T12:31:09;99094.28;;;1.75;72.75
55347;BME280;41218;55.700;38.270;2023-02-03T12:36:21;99094.94;;;1.72;72.84
55347;BME280;41218;55.700;38.270;2023-02-03T12:41:43;99091.59;;;1.66;72.96
55347;BME280;41218;55.700;38.270;2023-02-03T12:46:48;99090.94;;;1.69;72.84
55347;BME280;41218;55.700;38.270;2023-02-03T12:51:54;99090.00;;;1.65;72.83
55347;BME280;41218;55.700;38.270;2023-02-03T12:57:02;99076.41;;;1.56;73.03
55347;BME280;41218;55.700;38.270;2023-02-03T13:02:27;99080.41;;;1.59;72.92
55347;BME280;41218;55.700;38.270;2023-02-03T13:07:37;99092.56;;;1.62;72.68
55347;BME280;41218;55.700;38.270;2023-02-03T13:12:46;99088.91;;;1.57;72.78
55347;BME280;41218;55.700;38.270;2023-02-03T13:23:14;99091.16;;;1.55;72.85
55347;BME280;41218;55.700;38.270;2023-02-03T13:44:28;99084.16;;;1.37;73.09
55347;BME280;41218;55.700;38.270;2023-02-03T13:49:31;99089.59;;;1.37;73.09
55347;BME280;41218;55.700;38.270;2023-02-03T13:54:42;99091.69;;;1.31;73.34
55347;BME280;41218;55.700;38.270;2023-02-03T13:59:44;99096.84;;;1.33;73.27
55347;BME280;41218;55.700;38.270;2023-02-03T14:09:46;99093.31;;;1.24;73.41
55347;BME280;41218;55.700;38.270;2023-02-03T14:24:51;99100.69;;;1.23;73.61
55347;BME280;41218;55.700;38.270;2023-02-03T14:30:12;99096.50;;;1.26;73.85
55347;BME280;41218;55.700;38.270;2023-02-03T14:35:22;99093.31;;;1.24;73.87
55347;BME280;41218;55.700;38.270;2023-02-03T14:40:47;99100.69;;;1.23;73.79
55347;BME280;41218;55.700;38.270;2023-02-03T14:51:36;99093.19;;;1.20;73.66
55347;BME280;41218;55.700;38.270;2023-02-03T15:02:18;99098.00;;;1.14;73.40
55347;BME280;41218;55.700;38.270;2023-02-03T15:07:43;99098.63;;;1.11;74.26
55347;BME280;41218;55.700;38.270;2023-02-03T15:12:53;99097.50;;;1.12;74.06
55347;BME280;41218;55.700;38.270;2023-02-03T15:17:59;99103.28;;;1.11;74.03
55347;BME280;41218;55.700;38.270;2023-02-03T15:23:00;99098.63;;;1.11;74.06
55347;BME280;41218;55.700;38.270;2023-02-03T15:28:19;99103.47;;;1.06;74.60
55347;BME280;41218;55.700;38.270;2023-02-03T15:33:21;99102.97;;;1.04;74.32
55347;BME280;41218;55.700;38.270;2023-02-03T15:38:27;99110.66;;;1.02;74.65
55347;BME280;41218;55.700;38.270;2023-02-03T15:43:30;99108.41;;;1.04;74.37
55347;BME280;41218;55.700;38.270;2023-02-03T15:48:38;99107.00;;;0.97;74.41
55347;BME280;41218;55.700;38.270;2023-02-03T15:53:51;99114.97;;;1.03;74.63
55347;BME280;41218;55.700;38.270;2023-02-03T15:58:53;99103.78;;;0.95;74.37
55347;BME280;41218;55.700;38.270;2023-02-03T16:03:55;99121.22;;;1.03;74.46
55347;BME280;41218;55.700;38.270;2023-02-03T16:08:57;99112.44;;;0.97;74.65
55347;BME280;41218;55.700;38.270;2023-02-03T16:14:07;99120.72;;;1.01;74.52
55347;BME280;41218;55.700;38.270;2023-02-03T16:19:15;99123.78;;;0.99;74.97
55347;BME280;41218;55.700;38.270;2023-02-03T16:29:34;99116.09;;;0.93;74.70
55347;BME280;41218;55.700;38.270;2023-02-03T16:34:53;99114.19;;;0.93;74.44
55347;BME280;41218;55.700;38.270;2023-02-03T16:40:17;99133.06;;;0.98;74.45
55347;BME280;41218;55.700;38.270;2023-02-03T16:45:36;99125.69;;;0.99;74.50
55347;BME280;41218;55.700;38.270;2023-02-03T16:50:56;99131.78;;;0.96;74.56
55347;BME280;41218;55.700;38.270;2023-02-03T16:56:03;99132.59;;;0.96;74.79
55347;BME280;41218;55.700;38.270;2023-02-03T17:01:05;99133.25;;;0.93;74.79
55347;BME280;41218;55.700;38.270;2023-02-03T17:06:10;99120.56;;;0.89;74.80
55347;BME280;41218;55.700;38.270;2023-02-03T17:11:18;99127.63;;;0.90;74.74
55347;BME280;41218;55.700;38.270;2023-02-03T17:16:22;99125.72;;;0.90;74.74
55347;BME280;41218;55.700;38.270;2023-02-03T17:21:26;99136.59;;;0.90;74.66
55347;BME280;41218;55.700;38.270;2023-02-03T17:26:27;99129.72;;;0.84;74.66
55347;BME280;41218;55.700;38.270;2023-02-03T17:31:28;99134.50;;;0.87;74.73
55347;BME280;41218;55.700;38.270;2023-02-03T17:36:29;99132.91;;;0.86;74.68
55347;BME280;41218;55.700;38.270;2023-02-03T17:41:29;99125.25;;;0.79;74.80
55347;BME280;41218;55.700;38.270;2023-02-03T17:46:31;99141.69;;;0.83;74.82
55347;BME280;41218;55.700;38.270;2023-02-03T17:51:32;99133.22;;;0.76;74.66
55347;BME280;41218;55.700;38.270;2023-02-03T17:56:33;99138.50;;;0.81;74.79
55347;BME280;41218;55.700;38.270;2023-02-03T18:01:34;99143.31;;;0.75;74.84
55347;BME280;41218;55.700;38.270;2023-02-03T18:06:35;99138.81;;;0.71;75.12
55347;BME280;41218;55.700;38.270;2023-02-03T18:11:36;99150.34;;;0.76;75.08
55347;BME280;41218;55.700;38.270;2023-02-03T18:16:37;99141.06;;;0.69;74.95
55347;BME280;41218;55.700;38.270;2023-02-03T18:21:38;99160.25;;;0.72;74.94
55347;BME280;41218;55.700;38.270;2023-02-03T18:26:50;99164.44;;;0.70;75.25
55347;BME280;41218;55.700;38.270;2023-02-03T18:31:51;99170.84;;;0.74;74.89
55347;BME280;41218;55.700;38.270;2023-02-03T18:36:51;99170.03;;;0.73;74.99
55347;BME280;41218;55.700;38.270;2023-02-03T18:41:52;99154.16;;;0.67;75.12
55347;BME280;41218;55.700;38.270;2023-02-03T18:46:54;99164.91;;;0.72;75.02
55347;BME280;41218;55.700;38.270;2023-02-03T18:51:54;99173.88;;;0.72;75.12
55347;BME280;41218;55.700;38.270;2023-02-03T18:56:56;99165.88;;;0.67;75.11
55347;BME280;41218;55.700;38.270;2023-02-03T19:02:02;99169.69;;;0.66;75.21
55347;BME280;41218;55.700;38.270;2023-02-03T19:07:03;99170.50;;;0.67;74.96
55347;BME280;41218;55.700;38.270;2023-02-03T19:12:04;99172.75;;;0.73;74.68
55347;BME280;41218;55.700;38.270;2023-02-03T19:17:05;99170.84;;;0.74;74.68
55347;BME280;41218;55.700;38.270;2023-02-03T19:22:06;99167.47;;;0.68;74.78
55347;BME280;41218;55.700;38.270;2023-02-03T19:27:07;99174.19;;;0.71;74.76
55347;BME280;41218;55.700;38.270;2023-02-03T19:32:08;99178.50;;;0.72;74.94
55347;BME280;41218;55.700;38.270;2023-02-03T19:37:11;99175.78;;;0.72;74.88
55347;BME280;41218;55.700;38.270;2023-02-03T19:42:11;99174.03;;;0.67;75.10
55347;BME280;41218;55.700;38.270;2023-02-03T19:47:12;99169.88;;;0.61;75.07
55347;BME280;41218;55.700;38.270;2023-02-03T19:52:13;99186.69;;;0.72;74.96
55347;BME280;41218;55.700;38.270;2023-02-03T19:57:13;99189.09;;;0.73;74.83
55347;BME280;41218;55.700;38.270;2023-02-03T20:02:14;99176.59;;;0.64;75.02
55347;BME280;41218;55.700;38.270;2023-02-03T20:07:15;99196.59;;;0.68;75.05
55347;BME280;41218;55.700;38.270;2023-02-03T20:12:16;99197.88;;;0.70;74.74
55347;BME280;41218;55.700;38.270;2023-02-03T20:17:16;99201.88;;;0.73;74.88
55347;BME280;41218;55.700;38.270;2023-02-03T20:22:17;99199.00;;;0.69;75.09
55347;BME280;41218;55.700;38.270;2023-02-03T20:27:17;99194.66;;;0.68;74.94
55347;BME280;41218;55.700;38.270;2023-02-03T20:32:19;99213.56;;;0.73;75.10
55347;BME280;41218;55.700;38.270;2023-02-03T20:37:20;99220.28;;;0.76;74.77
55347;BME280;41218;55.700;38.270;2023-02-03T20:42:20;99219.16;;;0.77;74.99
55347;BME280;41218;55.700;38.270;2023-02-03T20:47:21;99228.94;;;0.78;74.90
55347;BME280;41218;55.700;38.270;2023-02-03T20:52:22;99224.94;;;0.75;74.89
55347;BME280;41218;55.700;38.270;2023-02-03T20:57:22;99239.00;;;0.77;74.96
55347;BME280;41218;55.700;38.270;2023-02-03T21:02:23;99236.44;;;0.72;74.86
55347;BME280;41218;55.700;38.270;2023-02-03T21:07:50;99247.19;;;0.77;74.78
55347;BME280;41218;55.700;38.270;2023-02-03T21:12:51;99251.19;;;0.80;74.82
55347;BME280;41218;55.700;38.270;2023-02-03T21:17:51;99240.91;;;0.77;74.72
55347;BME280;41218;55.700;38.270;2023-02-03T21:22:53;99251.97;;;0.80;74.78
55347;BME280;41218;55.700;38.270;2023-02-03T21:27:54;99261.75;;;0.82;74.61
55347;BME280;41218;55.700;38.270;2023-02-03T21:32:58;99258.19;;;0.81;74.75
55347;BME280;41218;55.700;38.270;2023-02-03T21:38:00;99260.13;;;0.80;74.74
55347;BME280;41218;55.700;38.270;2023-02-03T21:43:01;99258.06;;;0.77;75.10
55347;BME280;41218;55.700;38.270;2023-02-03T21:48:23;99263.16;;;0.79;74.83
55347;BME280;41218;55.700;38.270;2023-02-03T21:58:29;99273.25;;;0.78;74.61
55347;BME280;41218;55.700;38.270;2023-02-03T22:03:38;99262.84;;;0.72;74.42
55347;BME280;41218;55.700;38.270;2023-02-03T22:08:45;99261.56;;;0.69;74.41
55347;BME280;41218;55.700;38.270;2023-02-03T22:13:46;99282.06;;;0.75;74.13
55347;BME280;41218;55.700;38.270;2023-02-03T22:18:48;99274.22;;;0.74;74.41
55347;BME280;41218;55.700;38.270;2023-02-03T22:23:48;99281.22;;;0.75;74.57
55347;BME280;41218;55.700;38.270;2023-02-03T22:28:49;99275.66;;;0.71;74.47
55347;BME280;41218;55.700;38.270;2023-02-03T22:33:50;99278.22;;;0.76;74.44
55347;BME280;41218;55.700;38.270;2023-02-03T22:38:50;99273.41;;;0.73;74.39
55347;BME280;41218;55.700;38.270;2023-02-03T22:43:51;99277.59;;;0.79;74.53
55347;BME280;41218;55.700;38.270;2023-02-03T22:48:52;99291.00;;;0.76;74.23
55347;BME280;41218;55.700;38.270;2023-02-03T22:53:52;99284.59;;;0.72;73.95
55347;BME280;41218;55.700;38.270;2023-02-03T22:58:53;99289.72;;;0.73;74.13
55347;BME280;41218;55.700;38.270;2023-02-03T23:03:53;99286.66;;;0.66;74.15
55347;BME280;41218;55.700;38.270;2023-02-03T23:08:54;99295.47;;;0.72;74.15
55347;BME280;41218;55.700;38.270;2023-02-03T23:13:55;99298.03;;;0.68;73.94
55347;BME280;41218;55.700;38.270;2023-02-03T23:18:55;99298.50;;;0.70;73.90
55347;BME280;41218;55.700;38.270;2023-02-03T23:23:56;99306.38;;;0.72;73.84
55347;BME280;41218;55.700;38.270;2023-02-03T23:28:56;99303.47;;;0.68;73.90
55347;BME280;41218;55.700;38.270;2023-02-03T23:33:57;99309.69;;;0.69;73.82
55347;BME280;41218;55.700;38.270;2023-02-03T23:39:16;99314.03;;;0.70;74.02
55347;BME280;41218;55.700;38.270;2023-02-03T23:44:16;99303.13;;;0.61;73.79
55347;BME280;41218;55.700;38.270;2023-02-03T23:49:17;99319.78;;;0.68;74.17
55347;BME280;41218;55.700;38.270;2023-02-03T23:54:17;99321.22;;;0.66;74.04
55347;BME280;41218;55.700;38.270;2023-02-03T23:59:18;99319.47;;;0.61;73.66
